createdAt,value
2019-05-22T00:01:55.449Z,14.00
2019-05-22T00:04:38.149Z,14.00
2019-05-22T00:07:20.176Z,14.00
2019-05-22T00:10:01.797Z,14.00
2019-05-22T00:12:46.589Z,14.00
2019-05-22T00:15:26.649Z,14.10
2019-05-22T00:18:07.681Z,14.10
2019-05-22T00:20:49.304Z,14.10
2019-05-22T00:23:30.780Z,14.10
2019-05-22T00:26:11.944Z,14.10
2019-05-22T00:28:54.267Z,14.20
2019-05-22T00:31:35.395Z,14.10
2019-05-22T00:34:17.305Z,14.20
2019-05-22T00:36:58.560Z,14.20
2019-05-22T00:39:40.390Z,14.20
2019-05-22T00:42:20.976Z,14.20
2019-05-22T00:45:02.600Z,14.10
2019-05-22T00:47:44.012Z,14.20
2019-05-22T00:50:30.488Z,14.10
2019-05-22T00:53:31.869Z,14.10
2019-05-22T00:59:17.938Z,14.10
2019-05-22T01:02:02.988Z,14.00
2019-05-22T01:04:43.557Z,14.00
2019-05-22T01:10:33.256Z,14.00
2019-05-22T01:13:15.274Z,13.90
2019-05-22T01:15:56.277Z,13.90
2019-05-22T01:18:38.768Z,13.90
2019-05-22T01:21:22.207Z,13.90
2019-05-22T01:24:04.484Z,14.00
2019-05-22T01:26:46.744Z,14.00
2019-05-22T01:29:27.435Z,14.00
2019-05-22T01:35:16.766Z,13.90
2019-05-22T01:37:58.113Z,13.90
2019-05-22T01:40:39.444Z,14.00
2019-05-22T01:43:24.228Z,14.00
2019-05-22T01:46:06.437Z,14.00
2019-05-22T01:48:48.324Z,14.00
2019-05-22T01:51:28.529Z,14.00
2019-05-22T01:54:11.314Z,14.00
2019-05-22T01:56:52.289Z,14.00
2019-05-22T01:59:34.500Z,14.00
2019-05-22T02:02:16.166Z,14.10
2019-05-22T02:04:58.398Z,14.10
2019-05-22T02:07:38.756Z,14.10
2019-05-22T02:10:19.836Z,14.10
2019-05-22T02:13:00.639Z,14.10
2019-05-22T02:15:41.416Z,14.10
2019-05-22T02:18:22.971Z,14.10
2019-05-22T02:21:04.532Z,14.10
2019-05-22T02:23:45.670Z,14.20
2019-05-22T02:26:27.470Z,14.20
2019-05-22T02:29:08.547Z,14.20
2019-05-22T02:31:54.485Z,14.20
2019-05-22T02:34:33.693Z,14.20
2019-05-22T02:37:15.789Z,14.20
2019-05-22T02:39:56.793Z,14.30
2019-05-22T02:42:37.732Z,14.30
2019-05-22T02:45:20.215Z,14.40
2019-05-22T02:48:01.781Z,14.40
2019-05-22T02:50:42.524Z,14.40
2019-05-22T02:53:23.841Z,14.30
2019-05-22T02:56:05.397Z,14.30
2019-05-22T02:58:46.166Z,14.20
2019-05-22T03:01:27.216Z,14.20
2019-05-22T03:04:09.714Z,14.20
2019-05-22T03:06:52.507Z,14.20
2019-05-22T03:09:33.715Z,14.30
2019-05-22T03:12:16.013Z,14.30
2019-05-22T03:14:56.653Z,14.30
2019-05-22T03:17:38.656Z,14.30
2019-05-22T03:20:19.704Z,14.30
2019-05-22T03:23:00.977Z,14.30
2019-05-22T03:25:41.910Z,14.30
2019-05-22T03:28:23.099Z,14.30
2019-05-22T03:31:04.844Z,14.30
2019-05-22T03:33:45.591Z,14.30
2019-05-22T03:36:25.985Z,14.30
2019-05-22T03:39:07.729Z,14.30
2019-05-22T03:41:48.090Z,14.20
2019-05-22T03:44:29.412Z,14.20
2019-05-22T03:47:10.977Z,14.20
2019-05-22T03:49:51.172Z,14.20
2019-05-22T03:52:31.777Z,14.20
2019-05-22T03:55:12.971Z,14.20
2019-05-22T03:57:54.124Z,14.10
2019-05-22T04:00:34.545Z,14.10
2019-05-22T04:03:17.302Z,14.10
2019-05-22T04:05:58.860Z,14.10
2019-05-22T04:08:39.882Z,14.10
2019-05-22T04:11:20.924Z,14.10
2019-05-22T04:14:02.009Z,14.10
2019-05-22T04:16:44.496Z,14.10
2019-05-22T04:19:25.587Z,14.10
2019-05-22T04:22:07.939Z,14.00
2019-05-22T04:24:49.185Z,14.00
2019-05-22T04:27:30.122Z,13.90
2019-05-22T04:30:12.781Z,13.90
2019-05-22T04:32:53.650Z,13.90
2019-05-22T04:35:34.192Z,13.90
2019-05-22T04:38:15.441Z,13.90
2019-05-22T04:40:56.643Z,13.90
2019-05-22T04:43:37.898Z,13.90
2019-05-22T04:46:18.708Z,13.90
2019-05-22T04:48:59.181Z,13.90
2019-05-22T04:51:39.570Z,13.90
2019-05-22T04:54:20.456Z,13.80
2019-05-22T04:57:02.037Z,13.80
2019-05-22T04:59:43.048Z,13.80
2019-05-22T05:02:23.600Z,13.70
2019-05-22T05:05:05.677Z,13.70
2019-05-22T05:07:46.831Z,13.70
2019-05-22T05:10:27.396Z,13.70
2019-05-22T05:13:09.220Z,13.80
2019-05-22T05:15:50.312Z,13.80
2019-05-22T05:18:30.963Z,13.90
2019-05-22T05:21:12.012Z,13.90
2019-05-22T05:23:52.490Z,13.90
2019-05-22T05:26:34.651Z,14.00
2019-05-22T05:29:14.854Z,14.10
2019-05-22T05:31:56.075Z,14.10
2019-05-22T05:34:36.534Z,14.20
2019-05-22T05:37:18.680Z,14.30
2019-05-22T05:39:59.609Z,14.30
2019-05-22T05:42:40.309Z,14.40
2019-05-22T05:45:20.795Z,14.40
2019-05-22T05:48:01.257Z,14.40
2019-05-22T05:50:42.841Z,14.40
2019-05-22T05:53:24.908Z,14.50
2019-05-22T05:56:07.031Z,14.50
2019-05-22T05:58:47.545Z,14.50
2019-05-22T06:01:29.974Z,14.50
2019-05-22T06:04:10.953Z,14.50
2019-05-22T06:06:53.690Z,14.50
2019-05-22T06:09:34.797Z,14.50
2019-05-22T06:12:16.604Z,14.50
2019-05-22T06:14:57.536Z,14.50
2019-05-22T06:17:40.032Z,14.50
2019-05-22T06:20:21.780Z,14.50
2019-05-22T06:23:02.551Z,14.60
2019-05-22T06:25:43.828Z,14.70
2019-05-22T06:28:24.577Z,14.70
2019-05-22T06:31:05.472Z,14.80
2019-05-22T06:33:46.094Z,14.90
2019-05-22T06:36:26.762Z,14.90
2019-05-22T06:39:08.993Z,14.90
2019-05-22T06:41:49.854Z,15.00
2019-05-22T06:44:33.738Z,15.20
2019-05-22T06:47:13.968Z,15.20
2019-05-22T06:50:39.025Z,15.30
2019-05-22T06:53:20.286Z,15.40
2019-05-22T06:56:00.929Z,15.50
2019-05-22T06:58:41.827Z,15.50
2019-05-22T07:01:22.848Z,15.60
2019-05-22T07:04:03.578Z,15.60
2019-05-22T07:06:44.527Z,15.60
2019-05-22T07:09:25.836Z,15.70
2019-05-22T07:12:08.759Z,15.90
2019-05-22T07:14:49.728Z,16.10
2019-05-22T07:17:31.072Z,16.30
2019-05-22T07:20:13.057Z,16.40
2019-05-22T07:22:53.822Z,16.50
2019-05-22T07:25:35.508Z,16.60
2019-05-22T07:28:16.955Z,16.60
2019-05-22T07:30:58.024Z,16.60
2019-05-22T07:33:38.612Z,16.50
2019-05-22T07:36:20.361Z,16.40
2019-05-22T07:39:01.350Z,16.30
2019-05-22T07:41:42.077Z,16.10
2019-05-22T07:44:22.850Z,16.10
2019-05-22T07:47:05.410Z,16.10
2019-05-22T07:49:46.754Z,16.10
2019-05-22T07:52:27.405Z,16.00
2019-05-22T07:55:08.496Z,16.10
2019-05-22T07:57:49.113Z,16.20
2019-05-22T08:00:29.994Z,16.30
2019-05-22T08:03:11.624Z,16.50
2019-05-22T08:05:52.005Z,16.40
2019-05-22T08:08:32.962Z,16.40
2019-05-22T08:11:14.391Z,16.40
2019-05-22T08:13:54.672Z,16.40
2019-05-22T08:16:35.251Z,16.50
2019-05-22T08:19:15.805Z,16.60
2019-05-22T08:22:06.915Z,16.70
2019-05-22T08:24:39.292Z,16.90
2019-05-22T08:27:19.957Z,17.10
2019-05-22T08:30:00.872Z,17.30
2019-05-22T08:32:41.328Z,17.30
2019-05-22T08:35:22.029Z,17.30
2019-05-22T08:38:02.214Z,17.30
2019-05-22T08:40:42.756Z,17.30
2019-05-22T08:43:23.589Z,17.20
2019-05-22T08:46:04.753Z,17.10
2019-05-22T08:48:48.068Z,17.00
2019-05-22T08:51:28.347Z,16.90
2019-05-22T08:54:08.976Z,16.80
2019-05-22T08:56:49.565Z,16.70
2019-05-22T08:59:30.588Z,16.60
2019-05-22T09:02:12.124Z,16.60
2019-05-22T09:04:53.157Z,16.60
2019-05-22T09:07:34.366Z,16.60
2019-05-22T09:10:15.313Z,16.60
2019-05-22T09:12:56.365Z,16.60
2019-05-22T09:15:38.607Z,16.50
2019-05-22T09:18:19.853Z,16.50
2019-05-22T09:21:00.551Z,16.40
2019-05-22T09:23:41.061Z,16.40
2019-05-22T09:26:22.712Z,16.30
2019-05-22T09:29:04.028Z,16.20
2019-05-22T09:31:45.079Z,16.20
2019-05-22T09:34:25.620Z,16.20
2019-05-22T09:37:06.669Z,16.30
2019-05-22T09:39:47.308Z,16.40
2019-05-22T09:42:28.020Z,16.30
2019-05-22T09:45:08.869Z,16.40
2019-05-22T09:47:49.414Z,16.30
2019-05-22T09:50:30.382Z,16.20
2019-05-22T09:53:11.319Z,16.20
2019-05-22T09:55:51.942Z,16.20
2019-05-22T09:58:33.096Z,16.20
2019-05-22T10:01:14.856Z,16.20
2019-05-22T10:03:55.757Z,16.40
2019-05-22T10:06:36.388Z,16.60
2019-05-22T10:09:17.048Z,16.70
2019-05-22T10:11:58.129Z,16.70
2019-05-22T10:14:39.669Z,16.90
2019-05-22T10:17:20.616Z,17.10
2019-05-22T10:20:01.248Z,17.20
2019-05-22T10:22:42.976Z,17.30
2019-05-22T10:25:24.047Z,17.40
2019-05-22T10:28:04.334Z,17.60
2019-05-22T10:30:45.456Z,17.80
2019-05-22T10:33:26.341Z,17.90
2019-05-22T10:36:06.878Z,18.10
2019-05-22T10:38:47.128Z,18.50
2019-05-22T10:41:28.464Z,18.90
2019-05-22T10:44:08.852Z,19.20
2019-05-22T10:46:49.760Z,19.40
2019-05-22T10:49:30.499Z,19.40
2019-05-22T10:52:11.608Z,19.50
2019-05-22T10:54:55.815Z,19.50
2019-05-22T10:57:34.776Z,19.50
2019-05-22T11:00:15.842Z,19.70
2019-05-22T11:02:56.792Z,19.70
2019-05-22T11:05:37.519Z,19.90
2019-05-22T11:08:17.918Z,19.90
2019-05-22T11:10:58.376Z,20.10
2019-05-22T11:13:40.537Z,20.20
2019-05-22T11:16:21.169Z,20.30
2019-05-22T11:19:01.898Z,20.50
2019-05-22T11:21:42.455Z,20.70
2019-05-22T11:24:22.880Z,20.70
2019-05-22T11:27:03.773Z,20.40
2019-05-22T11:29:44.870Z,20.40
2019-05-22T11:32:25.371Z,20.20
2019-05-22T11:35:06.211Z,19.90
2019-05-22T11:37:47.378Z,19.90
2019-05-22T11:40:28.377Z,20.00
2019-05-22T11:43:09.963Z,20.20
2019-05-22T11:45:51.116Z,20.50
2019-05-22T11:48:32.064Z,20.70
2019-05-22T11:51:13.158Z,21.20
2019-05-22T11:54:08.179Z,21.70
2019-05-22T11:56:36.277Z,22.10
2019-05-22T11:59:16.465Z,22.20
2019-05-22T12:01:57.713Z,22.30
2019-05-22T12:04:47.864Z,22.30
2019-05-22T12:07:21.296Z,22.40
2019-05-22T12:10:02.271Z,22.50
2019-05-22T12:12:43.235Z,22.40
2019-05-22T12:15:24.882Z,22.80
2019-05-22T12:18:06.705Z,22.90
2019-05-22T12:20:47.800Z,22.80
2019-05-22T12:23:28.580Z,23.20
2019-05-22T12:26:09.352Z,23.60
2019-05-22T12:28:50.080Z,23.80
2019-05-22T12:31:30.757Z,24.00
2019-05-22T12:34:11.241Z,24.00
2019-05-22T12:36:51.786Z,23.90
2019-05-22T12:39:32.864Z,23.90
2019-05-22T12:42:13.862Z,24.00
2019-05-22T12:44:54.564Z,24.00
2019-05-22T12:47:35.718Z,24.10
2019-05-22T12:50:18.290Z,24.30
2019-05-22T12:52:59.255Z,24.40
2019-05-22T12:55:40.544Z,24.50
2019-05-22T12:58:21.056Z,24.60
2019-05-22T13:01:02.222Z,24.80
2019-05-22T13:03:42.861Z,25.00
2019-05-22T13:06:23.562Z,25.00
2019-05-22T13:09:05.699Z,25.10
2019-05-22T13:11:46.472Z,25.00
2019-05-22T13:14:26.941Z,24.90
2019-05-22T13:17:09.366Z,24.80
2019-05-22T13:19:50.434Z,24.80
2019-05-22T13:22:31.479Z,24.60
2019-05-22T13:25:12.589Z,24.50
2019-05-22T13:27:53.447Z,24.50
2019-05-22T13:30:36.274Z,24.60
2019-05-22T13:33:17.741Z,24.70
2019-05-22T13:35:57.992Z,24.90
2019-05-22T13:38:38.587Z,25.00
2019-05-22T13:41:19.748Z,24.90
2019-05-22T13:44:01.076Z,24.70
2019-05-22T13:46:42.037Z,24.50
2019-05-22T13:49:22.437Z,24.50
2019-05-22T13:52:03.594Z,24.60
2019-05-22T13:54:44.888Z,24.80
2019-05-22T13:57:26.143Z,24.90
2019-05-22T14:00:09.514Z,24.90
2019-05-22T14:02:50.071Z,24.90
2019-05-22T14:05:30.800Z,25.00
2019-05-22T14:08:12.248Z,25.00
2019-05-22T14:10:52.933Z,25.00
2019-05-22T14:13:33.880Z,25.10
2019-05-22T14:16:14.761Z,25.10
2019-05-22T14:18:55.683Z,24.90
2019-05-22T14:21:36.894Z,24.90
2019-05-22T14:24:17.747Z,24.70
2019-05-22T14:26:58.550Z,24.60
2019-05-22T14:29:39.534Z,24.40
2019-05-22T14:32:20.245Z,24.30
2019-05-22T14:35:00.744Z,24.20
2019-05-22T14:37:41.256Z,24.20
2019-05-22T14:40:21.817Z,23.90
2019-05-22T14:43:02.396Z,23.50
2019-05-22T14:45:43.188Z,23.50
2019-05-22T14:48:24.069Z,23.40
2019-05-22T14:51:04.857Z,23.50
2019-05-22T14:53:45.500Z,23.60
2019-05-22T14:56:26.849Z,23.60
2019-05-22T14:59:08.164Z,23.60
2019-05-22T15:01:49.046Z,23.60
2019-05-22T15:04:29.757Z,23.60
2019-05-22T15:07:10.195Z,23.50
2019-05-22T15:09:50.987Z,23.50
2019-05-22T15:12:31.388Z,23.40
2019-05-22T15:15:12.693Z,23.40
2019-05-22T15:17:53.800Z,23.20
2019-05-22T15:20:35.870Z,22.90
2019-05-22T15:23:16.780Z,22.90
2019-05-22T15:25:57.572Z,22.90
2019-05-22T15:28:38.037Z,22.90
2019-05-22T15:31:19.106Z,22.90
2019-05-22T15:34:00.190Z,22.80
2019-05-22T15:36:42.629Z,22.70
2019-05-22T15:39:25.217Z,22.70
2019-05-22T15:42:06.306Z,22.70
2019-05-22T15:44:47.332Z,22.60
2019-05-22T15:47:28.304Z,22.70
2019-05-22T15:50:09.265Z,22.70
2019-05-22T15:52:50.185Z,22.60
2019-05-22T15:55:31.028Z,22.40
2019-05-22T15:58:11.853Z,22.30
2019-05-22T16:00:53.019Z,22.20
2019-05-22T16:03:34.087Z,22.10
2019-05-22T16:06:15.174Z,22.10
2019-05-22T16:08:55.870Z,22.00
2019-05-22T16:11:36.722Z,21.90
2019-05-22T16:14:18.096Z,21.80
2019-05-22T16:16:59.173Z,21.70
2019-05-22T16:19:40.007Z,21.50
2019-05-22T16:22:20.956Z,21.30
2019-05-22T16:25:02.037Z,21.10
2019-05-22T16:27:44.097Z,21.10
2019-05-22T16:30:25.381Z,21.00
2019-05-22T16:33:06.662Z,21.10
2019-05-22T16:35:47.343Z,21.00
2019-05-22T16:38:28.810Z,20.90
2019-05-22T16:41:10.108Z,20.90
2019-05-22T16:43:51.880Z,20.90
2019-05-22T16:46:33.492Z,20.90
2019-05-22T16:49:14.324Z,20.90
2019-05-22T16:51:54.809Z,20.90
2019-05-22T16:54:35.670Z,20.70
2019-05-22T16:57:16.365Z,20.50
2019-05-22T16:59:56.936Z,20.50
2019-05-22T17:02:37.917Z,20.50
2019-05-22T17:05:19.822Z,20.40
2019-05-22T17:08:00.323Z,20.30
2019-05-22T17:10:41.101Z,20.20
2019-05-22T17:13:21.954Z,20.10
2019-05-22T17:16:02.559Z,20.10
2019-05-22T17:18:47.431Z,20.10
2019-05-22T17:21:26.647Z,20.00
2019-05-22T17:24:07.747Z,19.90
2019-05-22T17:26:49.879Z,19.80
2019-05-22T17:29:31.816Z,19.70
2019-05-22T17:32:13.409Z,19.60
2019-05-22T17:34:54.279Z,19.50
2019-05-22T17:37:35.060Z,19.40
2019-05-22T17:40:16.988Z,19.30
2019-05-22T17:42:58.344Z,19.20
2019-05-22T17:45:39.276Z,19.00
2019-05-22T17:48:21.932Z,18.90
2019-05-22T17:51:03.120Z,18.80
2019-05-22T17:53:43.772Z,18.70
2019-05-22T17:56:24.788Z,18.70
2019-05-22T17:59:06.108Z,18.60
2019-05-22T18:01:46.672Z,18.50
2019-05-22T18:04:27.381Z,18.40
2019-05-22T18:07:08.593Z,18.30
2019-05-22T18:09:49.425Z,18.20
2019-05-22T18:12:30.258Z,18.20
2019-05-22T18:15:11.027Z,18.10
2019-05-22T18:17:51.961Z,18.00
2019-05-22T18:20:42.246Z,17.90
2019-05-22T18:23:15.542Z,17.80
2019-05-22T18:25:56.684Z,17.70
2019-05-22T18:28:37.205Z,17.70
2019-05-22T18:31:17.582Z,17.60
2019-05-22T18:33:58.122Z,17.50
2019-05-22T18:36:38.984Z,17.40
2019-05-22T18:39:19.470Z,17.40
2019-05-22T18:42:00.335Z,17.30
2019-05-22T18:44:41.671Z,17.10
2019-05-22T18:47:22.931Z,17.00
2019-05-22T18:50:04.424Z,16.80
2019-05-22T18:52:45.051Z,16.70
2019-05-22T18:55:25.562Z,16.60
2019-05-22T18:58:06.433Z,16.50
2019-05-22T19:00:47.387Z,16.40
2019-05-22T19:03:28.277Z,16.30
2019-05-22T19:06:09.008Z,16.20
2019-05-22T19:08:49.997Z,16.10
2019-05-22T19:11:30.584Z,16.00
2019-05-22T19:14:12.574Z,15.80
2019-05-22T19:16:53.544Z,15.70
2019-05-22T19:19:34.626Z,15.60
2019-05-22T19:22:15.162Z,15.50
2019-05-22T19:24:55.620Z,15.30
2019-05-22T19:27:36.643Z,15.20
2019-05-22T19:30:18.861Z,15.10
2019-05-22T19:32:59.207Z,14.90
2019-05-22T19:35:40.416Z,14.80
2019-05-22T19:38:22.935Z,14.70
2019-05-22T19:41:03.768Z,14.60
2019-05-22T19:43:44.300Z,14.50
2019-05-22T19:46:24.984Z,14.30
2019-05-22T19:49:05.768Z,14.20
2019-05-22T19:51:46.403Z,14.10
2019-05-22T19:54:26.864Z,14.00
2019-05-22T19:57:08.954Z,13.90
2019-05-22T19:59:50.220Z,13.90
2019-05-22T20:02:31.492Z,13.80
2019-05-22T20:05:12.728Z,13.70
2019-05-22T20:07:53.533Z,13.60
2019-05-22T20:10:34.074Z,13.50
2019-05-22T20:13:15.007Z,13.40
2019-05-22T20:15:56.234Z,13.30
2019-05-22T20:18:36.736Z,13.30
2019-05-22T20:21:17.129Z,13.20
2019-05-22T20:23:57.477Z,13.10
2019-05-22T20:26:38.122Z,13.00
2019-05-22T20:29:18.581Z,12.90
2019-05-22T20:31:59.153Z,12.90
2019-05-22T20:34:40.183Z,12.80
2019-05-22T20:37:21.189Z,12.70
2019-05-22T20:40:02.293Z,12.60
2019-05-22T20:42:44.057Z,12.60
2019-05-22T20:45:25.384Z,12.50
2019-05-22T20:48:06.210Z,12.40
2019-05-22T20:50:46.769Z,12.40
2019-05-22T20:53:28.713Z,12.30
2019-05-22T20:56:11.076Z,12.30
2019-05-22T20:58:52.374Z,12.20
2019-05-22T21:01:33.434Z,12.20
2019-05-22T21:04:16.137Z,12.10
2019-05-22T21:06:59.777Z,12.00
2019-05-22T21:09:39.742Z,12.00
2019-05-22T21:12:20.840Z,11.90
2019-05-22T21:15:01.882Z,11.90
2019-05-22T21:17:44.180Z,11.80
2019-05-22T21:20:26.521Z,11.80
2019-05-22T21:23:07.456Z,11.70
2019-05-22T21:25:47.900Z,11.70
2019-05-22T21:28:28.816Z,11.60
2019-05-22T21:31:09.717Z,11.60
2019-05-22T21:33:51.021Z,11.50
2019-05-22T21:36:31.990Z,11.50
2019-05-22T21:39:13.869Z,11.40
2019-05-22T21:41:54.701Z,11.40
2019-05-22T21:44:35.744Z,11.30
2019-05-22T21:47:18.041Z,11.20
2019-05-22T21:49:58.776Z,11.10
2019-05-22T21:52:40.130Z,11.10
2019-05-22T21:55:21.978Z,11.00
2019-05-22T21:58:03.637Z,10.90
2019-05-22T22:00:49.222Z,10.90
2019-05-22T22:06:37.497Z,10.90
2019-05-22T22:09:19.960Z,10.90
2019-05-22T22:12:01.236Z,10.80
2019-05-22T22:14:42.976Z,10.80
2019-05-22T22:17:25.554Z,10.70
2019-05-22T22:20:06.617Z,10.70
2019-05-22T22:22:49.069Z,10.60
2019-05-22T22:25:31.584Z,10.60
2019-05-22T22:28:13.392Z,10.50
2019-05-22T22:30:58.885Z,10.50
2019-05-22T22:33:40.125Z,10.40
2019-05-22T22:36:20.958Z,10.40
2019-05-22T22:39:03.424Z,10.40
2019-05-22T22:41:45.937Z,10.30
2019-05-22T22:44:26.437Z,10.30
2019-05-22T22:47:11.481Z,10.30
2019-05-22T22:49:52.806Z,10.20
2019-05-22T22:52:33.392Z,10.10
2019-05-22T22:55:14.157Z,10.10
2019-05-22T22:57:55.372Z,10.00
2019-05-22T23:00:37.720Z,10.00
2019-05-22T23:03:18.723Z,10.00
2019-05-22T23:06:01.113Z,10.00
2019-05-22T23:08:42.739Z,10.00
2019-05-22T23:11:25.248Z,9.90
2019-05-22T23:14:06.142Z,9.90
2019-05-22T23:16:46.775Z,9.80
2019-05-22T23:19:27.821Z,9.80
2019-05-22T23:22:10.017Z,9.80
2019-05-22T23:24:51.718Z,9.80
2019-05-22T23:27:33.648Z,9.80
2019-05-22T23:30:14.501Z,9.70
2019-05-22T23:32:54.940Z,9.70
2019-05-22T23:35:35.721Z,9.70
2019-05-22T23:38:16.254Z,9.70
2019-05-22T23:40:57.188Z,9.70
2019-05-22T23:43:38.537Z,9.60
2019-05-22T23:46:19.053Z,9.60
2019-05-22T23:48:59.980Z,9.60
2019-05-22T23:51:40.592Z,9.60
2019-05-22T23:54:21.592Z,9.50
2019-05-22T23:57:04.692Z,9.50
2019-05-22T23:59:46.863Z,9.50
